Time;durP1;ratioP1;P1;durP2;ratioP2;P2;SDS_P1;SDS_P2;PMS_P1;PMS_P2;Temp;Humidity;BMP_temperature;BMP_pressure;BME280_temperature;BME280_humidity;BME280_pressure;Samples;Min_cycle;Max_cycle;Signal;HPM_P1;HPM_P2
2021/01/05 00:00:20;;;;;;;49.90;29.38;;;17.00;70.50;;;;;;2071898;28;20030;-56
2021/01/05 00:01:20;;;;;;;45.85;28.33;;;17.00;70.40;;;;;;2071796;28;20106;-54
2021/01/05 00:02:21;;;;;;;48.60;28.70;;;17.00;70.40;;;;;;2071440;28;20469;-54
2021/01/05 00:03:22;;;;;;;48.65;29.30;;;17.00;70.50;;;;;;2071145;28;20041;-56
2021/01/05 00:04:22;;;;;;;49.22;28.85;;;17.00;70.50;;;;;;2071393;28;20050;-54
2021/01/05 00:05:23;;;;;;;44.45;27.92;;;17.00;70.60;;;;;;2070755;28;20049;-55
2021/01/05 00:06:24;;;;;;;48.30;28.88;;;17.00;70.70;;;;;;2071968;28;20365;-56
2021/01/05 00:07:24;;;;;;;49.33;29.60;;;17.00;70.70;;;;;;2062922;28;20484;-56
2021/01/05 00:08:25;;;;;;;50.17;29.30;;;17.00;70.80;;;;;;2063214;28;20232;-55
2021/01/05 00:09:26;;;;;;;50.65;28.85;;;16.90;70.80;;;;;;2071832;28;20059;-57
2021/01/05 00:10:27;;;;;;;50.13;29.45;;;17.00;70.90;;;;;;2071379;28;20034;-57
2021/01/05 00:11:27;;;;;;;47.72;27.55;;;17.00;70.90;;;;;;2071797;28;20065;-54
2021/01/05 00:12:28;;;;;;;45.25;27.15;;;17.00;71.00;;;;;;2071195;28;20575;-57
2021/01/05 00:13:29;;;;;;;47.88;29.83;;;16.90;71.20;;;;;;2062938;28;20023;-54
2021/01/05 00:14:30;;;;;;;47.40;28.60;;;16.90;71.10;;;;;;2071060;28;20029;-55
2021/01/05 00:15:30;;;;;;;50.40;29.17;;;16.90;71.20;;;;;;2070268;28;20102;-55
2021/01/05 00:16:31;;;;;;;50.10;29.33;;;16.90;71.40;;;;;;2071325;28;20986;-54
2021/01/05 00:17:32;;;;;;;47.55;28.55;;;16.90;71.30;;;;;;2079275;28;20551;-57
2021/01/05 00:18:32;;;;;;;47.33;28.30;;;16.90;71.20;;;;;;2071241;28;20473;-57
2021/01/05 00:19:33;;;;;;;46.92;28.55;;;16.90;71.20;;;;;;2071725;28;20637;-59
2021/01/05 00:20:34;;;;;;;47.20;28.17;;;16.90;71.40;;;;;;2071803;28;20096;-56
2021/01/05 00:21:35;;;;;;;48.75;28.83;;;16.90;71.40;;;;;;2071733;28;20126;-57
2021/01/05 00:22:35;;;;;;;48.45;28.30;;;17.00;71.40;;;;;;2071768;28;20041;-59
2021/01/05 00:23:36;;;;;;;47.58;28.27;;;16.90;71.20;;;;;;2071737;28;20021;-59
2021/01/05 00:24:37;;;;;;;46.97;27.80;;;16.90;71.50;;;;;;2071262;28;20056;-58
2021/01/05 00:25:37;;;;;;;47.72;28.90;;;16.90;71.50;;;;;;2071130;28;20115;-56
2021/01/05 00:26:38;;;;;;;48.05;28.85;;;16.90;71.40;;;;;;2071423;28;20030;-58
2021/01/05 00:27:39;;;;;;;46.33;28.48;;;16.90;72.40;;;;;;2071707;28;20034;-55
2021/01/05 00:28:40;;;;;;;47.50;28.05;;;16.90;71.50;;;;;;2071600;28;20156;-58
2021/01/05 00:29:41;;;;;;;46.10;28.25;;;16.90;71.40;;;;;;2070903;28;20112;-57
2021/01/05 00:30:42;;;;;;;48.40;28.52;;;16.90;71.60;;;;;;2071242;28;20094;-59
2021/01/05 00:31:43;;;;;;;45.80;27.58;;;16.90;71.70;;;;;;2071646;28;20026;-58
2021/01/05 00:32:45;;;;;;;48.72;27.88;;;16.90;71.50;;;;;;2071895;28;20436;-59
2021/01/05 00:33:46;;;;;;;46.45;28.08;;;16.90;71.60;;;;;;2071728;28;20084;-54
2021/01/05 00:34:47;;;;;;;46.95;27.08;;;16.90;71.90;;;;;;2071062;28;20041;-55
2021/01/05 00:35:48;;;;;;;46.15;27.67;;;16.90;72.10;;;;;;2070679;28;20033;-57
2021/01/05 00:36:49;;;;;;;45.75;28.45;;;16.80;72.30;;;;;;2071807;28;20026;-56
2021/01/05 00:37:50;;;;;;;48.50;28.55;;;16.80;72.20;;;;;;2072429;28;20411;-58
2021/01/05 00:38:51;;;;;;;47.83;28.20;;;16.90;72.10;;;;;;2079781;28;20483;-58
2021/01/05 00:39:51;;;;;;;46.95;28.00;;;16.80;72.30;;;;;;2079620;28;20025;-58
2021/01/05 00:40:52;;;;;;;48.75;28.38;;;16.90;72.30;;;;;;2079791;28;20895;-57
2021/01/05 00:41:53;;;;;;;45.00;27.85;;;16.80;72.20;;;;;;2079663;28;20029;-58
2021/01/05 00:42:54;;;;;;;46.75;27.85;;;16.80;72.40;;;;;;2078930;28;20041;-58
2021/01/05 00:43:55;;;;;;;47.20;27.58;;;16.80;72.50;;;;;;2070634;28;20037;-59
2021/01/05 00:44:56;;;;;;;49.35;27.88;;;16.80;72.40;;;;;;2070697;28;20041;-58
2021/01/05 00:45:56;;;;;;;48.10;27.65;;;16.70;72.60;;;;;;2070451;28;20068;-58
2021/01/05 00:46:57;;;;;;;46.90;28.20;;;16.70;72.60;;;;;;2079015;28;20793;-57
2021/01/05 00:47:59;;;;;;;45.95;27.90;;;16.70;72.60;;;;;;2079549;28;20034;-58
2021/01/05 00:49:00;;;;;;;45.80;27.17;;;16.80;72.70;;;;;;2079964;28;20129;-59
2021/01/05 00:50:01;;;;;;;45.28;28.40;;;16.80;72.50;;;;;;2078986;28;20366;-56
2021/01/05 00:51:02;;;;;;;45.92;27.23;;;16.80;72.40;;;;;;2078581;28;20165;-57
2021/01/05 00:52:03;;;;;;;45.20;27.60;;;16.80;72.50;;;;;;2078375;28;20033;-57
2021/01/05 00:53:04;;;;;;;45.53;27.67;;;16.70;72.60;;;;;;2070801;28;20485;-54
2021/01/05 00:54:05;;;;;;;45.35;27.15;;;16.80;72.90;;;;;;2078921;28;20531;-56
2021/01/05 00:55:07;;;;;;;45.05;27.10;;;16.70;72.90;;;;;;2078354;28;20044;-57
2021/01/05 00:56:08;;;;;;;46.10;27.58;;;16.70;72.80;;;;;;2071121;28;20030;-59
2021/01/05 00:57:11;;;;;;;41.65;26.25;;;16.80;72.70;;;;;;2070913;28;20030;-55
2021/01/05 00:58:18;;;;;;;45.80;27.77;;;16.80;72.70;;;;;;2079044;28;20032;-56
2021/01/05 00:59:19;;;;;;;43.70;27.45;;;16.70;72.70;;;;;;2070772;28;20465;-58
2021/01/05 01:00:23;;;;;;;44.30;27.58;;;16.70;72.90;;;;;;2078708;28;20133;-56
2021/01/05 01:01:26;;;;;;;47.15;27.67;;;16.70;72.90;;;;;;2079032;28;20799;-58
2021/01/05 01:02:26;;;;;;;45.25;27.38;;;16.70;72.90;;;;;;2078925;28;20081;-58
2021/01/05 01:03:27;;;;;;;45.67;28.05;;;16.70;73.00;;;;;;2070657;28;20026;-57
2021/01/05 01:04:28;;;;;;;44.20;26.63;;;16.70;72.90;;;;;;2078701;28;20100;-55
2021/01/05 01:05:29;;;;;;;45.25;27.67;;;16.70;73.00;;;;;;2078991;28;20053;-54
2021/01/05 01:06:30;;;;;;;42.63;26.45;;;16.70;73.10;;;;;;2078972;28;20029;-56
2021/01/05 01:07:31;;;;;;;44.95;26.85;;;16.70;73.10;;;;;;2078678;28;20078;-58
2021/01/05 01:08:32;;;;;;;45.10;26.98;;;16.70;73.20;;;;;;2078907;28;20025;-58
2021/01/05 01:09:33;;;;;;;43.88;26.52;;;16.70;73.30;;;;;;2078886;28;20024;-55
2021/01/05 01:10:34;;;;;;;43.28;26.55;;;16.70;73.40;;;;;;2079700;28;20082;-56
2021/01/05 01:11:37;;;;;;;43.95;26.90;;;16.70;73.10;;;;;;2078740;28;20529;-58
2021/01/05 01:12:39;;;;;;;44.92;27.08;;;16.70;73.10;;;;;;2070894;28;20085;-59
2021/01/05 01:13:40;;;;;;;44.63;27.13;;;16.70;73.40;;;;;;2070881;28;20022;-57
2021/01/05 01:14:43;;;;;;;42.83;26.50;;;16.70;73.30;;;;;;2078469;28;20096;-57
2021/01/05 01:15:43;;;;;;;43.60;26.60;;;16.70;73.20;;;;;;2079149;28;20018;-56
2021/01/05 01:16:44;;;;;;;44.70;27.10;;;16.70;73.20;;;;;;2079624;28;20061;-58
2021/01/05 01:17:45;;;;;;;43.28;26.90;;;16.70;73.40;;;;;;2078664;28;20392;-58
2021/01/05 01:18:49;;;;;;;44.28;26.95;;;16.60;73.40;;;;;;2079079;28;20049;-55
2021/01/05 01:19:51;;;;;;;43.03;26.15;;;16.60;73.30;;;;;;2078781;28;20033;-58
2021/01/05 01:20:53;;;;;;;46.20;26.38;;;16.60;73.50;;;;;;2070860;28;20026;-58
2021/01/05 01:21:59;;;;;;;43.40;26.42;;;16.60;73.60;;;;;;2071405;28;20161;-58
2021/01/05 01:23:00;;;;;;;42.05;26.13;;;16.60;73.60;;;;;;2078896;28;20082;-55
2021/01/05 01:24:01;;;;;;;43.90;26.65;;;16.70;73.60;;;;;;2078814;28;20530;-57
2021/01/05 01:25:03;;;;;;;44.83;26.50;;;16.60;73.50;;;;;;2070219;28;20050;-57
2021/01/05 01:26:11;;;;;;;41.55;25.77;;;16.60;73.70;;;;;;2078857;28;20455;-58
2021/01/05 01:27:12;;;;;;;43.92;27.13;;;16.60;73.60;;;;;;2078976;28;20431;-55
2021/01/05 01:28:14;;;;;;;44.35;27.60;;;16.50;73.80;;;;;;2070808;28;20085;-58
2021/01/05 01:29:22;;;;;;;40.42;26.30;;;16.50;73.90;;;;;;2071250;28;20455;-58
2021/01/05 01:30:24;;;;;;;43.15;26.67;;;16.60;73.90;;;;;;2078722;28;20063;-58
2021/01/05 01:31:39;;;;;;;40.75;26.48;;;16.60;73.80;;;;;;2072762;28;20034;-57
2021/01/05 01:32:40;;;;;;;42.70;26.33;;;16.60;73.90;;;;;;2070737;28;20523;-58
2021/01/05 01:33:42;;;;;;;41.30;25.67;;;16.60;73.80;;;;;;2079044;28;20031;-57
2021/01/05 01:34:43;;;;;;;42.28;25.30;;;16.60;73.90;;;;;;2078824;28;20030;-57
2021/01/05 01:35:43;;;;;;;41.20;25.77;;;16.60;73.90;;;;;;2077822;28;20029;-57
2021/01/05 01:37:15;;;;;;;41.80;25.88;;;16.60;73.70;;;;;;2078848;28;20487;-54
2021/01/05 01:38:16;;;;;;;43.35;25.70;;;16.60;73.60;;;;;;2079700;28;20040;-54
2021/01/05 01:39:24;;;;;;;41.78;26.58;;;16.60;73.70;;;;;;2079363;28;20032;-57
2021/01/05 01:40:36;;;;;;;41.40;25.80;;;16.50;73.90;;;;;;2078740;28;20026;-56
2021/01/05 01:41:41;;;;;;;40.25;25.35;;;16.50;74.00;;;;;;2072671;28;20472;-57
2021/01/05 01:42:42;;;;;;;40.28;26.13;;;16.50;73.90;;;;;;2070095;28;20151;-58
2021/01/05 01:43:42;;;;;;;42.58;26.33;;;16.60;74.00;;;;;;2078779;28;20034;-55
2021/01/05 01:44:51;;;;;;;43.63;25.88;;;16.50;73.80;;;;;;2078220;28;20026;-54
2021/01/05 01:45:53;;;;;;;41.75;26.42;;;16.60;73.80;;;;;;2069722;28;20026;-55
2021/01/05 01:47:25;;;;;;;43.03;26.02;;;16.60;73.90;;;;;;2078744;28;20116;-57
2021/01/05 01:48:27;;;;;;;40.47;25.25;;;16.60;74.00;;;;;;2078761;28;20548;-56
2021/01/05 01:49:30;;;;;;;43.97;26.73;;;16.60;74.00;;;;;;2070556;28;20022;-57
2021/01/05 01:50:33;;;;;;;41.45;24.95;;;16.60;73.90;;;;;;2070543;28;20039;-57
2021/01/05 01:51:35;;;;;;;43.15;26.25;;;16.50;74.00;;;;;;2078235;28;20100;-59
2021/01/05 01:53:05;;;;;;;42.47;26.45;;;16.50;74.10;;;;;;2070387;28;20424;-57
2021/01/05 01:54:49;;;;;;;39.60;25.33;;;16.60;74.10;;;;;;2074062;28;20064;-54
2021/01/05 01:56:36;;;;;;;43.97;26.55;;;16.60;73.90;;;;;;2075623;28;20045;-58
2021/01/05 01:58:14;;;;;;;43.22;25.67;;;16.50;74.20;;;;;;2078560;28;20033;-57
2021/01/05 01:59:35;;;;;;;43.28;25.73;;;16.50;74.40;;;;;;2073186;28;20508;-56
2021/01/05 02:00:40;;;;;;;40.92;25.85;;;16.50;74.40;;;;;;2073690;28;20033;-55
2021/01/05 02:01:58;;;;;;;43.70;26.13;;;16.50;74.00;;;;;;2070218;28;20495;-55
2021/01/05 02:03:19;;;;;;;44.08;26.00;;;16.50;74.10;;;;;;2072628;28;20037;-57
2021/01/05 02:05:01;;;;;;;42.92;25.45;;;16.50;74.20;;;;;;2116312;27;20034;-57
2021/01/05 02:06:17;;;;;;;40.75;25.20;;;16.50;74.40;;;;;;2089503;28;20065;-55
2021/01/05 02:07:43;;;;;;;40.50;24.92;;;16.50;74.40;;;;;;2071444;28;20041;-58
2021/01/05 02:08:58;;;;;;;41.45;25.55;;;16.50;74.30;;;;;;2079037;28;20061;-58
2021/01/05 02:10:31;;;;;;;41.33;25.08;;;16.50;74.20;;;;;;2078499;28;20033;-57
2021/01/05 02:11:45;;;;;;;42.42;25.88;;;16.50;74.40;;;;;;2074412;28;20057;-57
2021/01/05 02:13:29;;;;;;;41.72;24.98;;;16.50;74.30;;;;;;2072303;28;20100;-57
2021/01/05 02:15:01;;;;;;;41.38;25.27;;;16.50;74.50;;;;;;2076149;28;20029;-58
2021/01/05 02:16:35;;;;;;;41.30;25.17;;;16.40;74.40;;;;;;2074585;28;20041;-58
2021/01/05 02:18:08;;;;;;;41.92;25.90;;;16.40;74.40;;;;;;2075149;28;20112;-57
2021/01/05 02:19:31;;;;;;;42.30;25.67;;;16.40;74.40;;;;;;2073769;28;20595;-57
2021/01/05 02:20:47;;;;;;;39.45;24.48;;;16.50;74.40;;;;;;2078963;28;20029;-56
2021/01/05 02:22:13;;;;;;;40.40;25.30;;;16.50;74.50;;;;;;2078969;28;20464;-57
2021/01/05 02:23:52;;;;;;;37.85;24.52;;;16.50;74.40;;;;;;2078183;28;20063;-57
2021/01/05 02:24:58;;;;;;;38.78;25.42;;;16.50;74.30;;;;;;2074607;28;20124;-58
2021/01/05 02:26:20;;;;;;;41.08;25.45;;;16.50;74.30;;;;;;2070637;28;20033;-57
2021/01/05 02:27:24;;;;;;;41.90;25.17;;;16.50;74.10;;;;;;2078973;28;20079;-58
2021/01/05 02:28:35;;;;;;;39.05;25.27;;;16.50;74.20;;;;;;2078439;28;20044;-57
2021/01/05 02:29:50;;;;;;;39.95;25.10;;;16.50;74.30;;;;;;2071563;28;20026;-58
2021/01/05 02:31:10;;;;;;;41.33;24.85;;;16.40;74.30;;;;;;2073472;28;20029;-58
2021/01/05 02:32:22;;;;;;;38.60;24.40;;;16.50;74.40;;;;;;2078287;28;20026;-55
2021/01/05 02:34:01;;;;;;;39.60;25.05;;;16.50;74.30;;;;;;2072483;28;20531;-56
2021/01/05 02:35:02;;;;;;;40.55;24.85;;;16.60;73.70;;;;;;2078552;28;20086;-56
2021/01/05 02:36:53;;;;;;;38.28;24.05;;;16.70;73.20;;;;;;2079181;28;20025;-57
2021/01/05 02:38:31;;;;;;;39.33;24.25;;;16.80;72.60;;;;;;2078651;28;20432;-57
2021/01/05 02:40:23;;;;;;;39.47;24.33;;;16.90;72.10;;;;;;2078900;28;20037;-57
2021/01/05 02:42:27;;;;;;;39.95;24.33;;;16.90;71.70;;;;;;2079287;28;20391;-57
2021/01/05 02:44:17;;;;;;;39.35;24.33;;;17.00;71.70;;;;;;2079259;28;20092;-57
2021/01/05 02:45:49;;;;;;;39.43;23.90;;;17.00;71.40;;;;;;2078249;28;20038;-58
2021/01/05 02:47:47;;;;;;;40.05;24.20;;;17.00;71.50;;;;;;2079074;28;20264;-56
2021/01/05 02:49:39;;;;;;;41.50;24.48;;;16.90;71.60;;;;;;2078964;28;20045;-57
2021/01/05 02:51:32;;;;;;;37.72;23.83;;;16.90;71.90;;;;;;2078912;28;20067;-57
2021/01/05 02:53:09;;;;;;;39.05;24.00;;;16.90;72.00;;;;;;2079015;28;20121;-57
2021/01/05 02:54:53;;;;;;;39.22;24.40;;;16.80;72.30;;;;;;2078572;28;20029;-54
2021/01/05 02:56:33;;;;;;;39.45;24.02;;;16.70;72.90;;;;;;2095596;28;20032;-57
2021/01/05 02:58:16;;;;;;;39.30;23.88;;;16.60;73.10;;;;;;2079143;28;20097;-58
2021/01/05 02:59:56;;;;;;;37.78;24.23;;;16.60;73.30;;;;;;2079089;28;20037;-58
2021/01/05 03:01:40;;;;;;;37.47;23.45;;;16.60;73.40;;;;;;2078902;28;20685;-56
2021/01/05 03:03:29;;;;;;;39.85;25.00;;;16.60;73.50;;;;;;2078834;28;20584;-56
2021/01/05 03:04:48;;;;;;;37.97;23.58;;;16.60;73.70;;;;;;2078669;28;20488;-58
2021/01/05 03:06:21;;;;;;;36.50;23.20;;;16.70;73.00;;;;;;2079027;28;20170;-57
2021/01/05 03:07:40;;;;;;;36.15;23.55;;;16.70;72.70;;;;;;2078808;28;20756;-56
2021/01/05 03:09:18;;;;;;;37.45;23.23;;;16.70;72.70;;;;;;2078962;28;20442;-55
2021/01/05 03:11:05;;;;;;;38.15;23.65;;;16.70;72.90;;;;;;2086957;28;20037;-56
2021/01/05 03:12:39;;;;;;;37.08;24.15;;;16.60;73.10;;;;;;2079136;28;20560;-56
2021/01/05 03:14:08;;;;;;;37.97;23.95;;;16.60;73.30;;;;;;2078594;28;20495;-58
2021/01/05 03:15:57;;;;;;;37.33;23.85;;;16.60;73.70;;;;;;2079555;28;20037;-58
2021/01/05 03:17:26;;;;;;;37.35;23.13;;;16.60;73.40;;;;;;2094815;28;20404;-58
2021/01/05 03:19:10;;;;;;;40.92;24.27;;;16.60;73.50;;;;;;2080590;28;20030;-54
2021/01/05 03:20:37;;;;;;;36.08;23.08;;;16.60;73.40;;;;;;2080514;28;20033;-55
2021/01/05 03:22:02;;;;;;;37.35;23.45;;;16.60;73.50;;;;;;2080022;28;20033;-58
2021/01/05 03:23:21;;;;;;;38.55;24.30;;;16.60;73.60;;;;;;2080389;28;20480;-58
2021/01/05 03:24:42;;;;;;;39.20;24.13;;;16.60;73.60;;;;;;2079993;28;20065;-58
2021/01/05 03:26:06;;;;;;;35.97;23.67;;;16.60;73.70;;;;;;2079918;28;20037;-56
2021/01/05 03:27:27;;;;;;;35.50;23.17;;;16.50;74.60;;;;;;2080349;28;20120;-57
2021/01/05 03:28:46;;;;;;;37.88;23.73;;;16.50;73.90;;;;;;2080341;28;20053;-55
2021/01/05 03:30:11;;;;;;;38.53;23.63;;;16.50;73.80;;;;;;2079737;28;20415;-55
2021/01/05 03:31:44;;;;;;;38.15;24.35;;;16.50;74.00;;;;;;2080409;28;20029;-57
2021/01/05 03:33:04;;;;;;;37.05;23.80;;;16.50;73.80;;;;;;2080343;28;20029;-54
2021/01/05 03:34:23;;;;;;;35.08;23.42;;;16.50;73.60;;;;;;2080185;28;20037;-58
2021/01/05 03:35:42;;;;;;;38.08;23.73;;;16.50;73.80;;;;;;2079459;28;20037;-54
2021/01/05 03:37:02;;;;;;;39.53;23.90;;;16.50;74.10;;;;;;2080322;28;20025;-58
2021/01/05 03:38:21;;;;;;;36.13;22.88;;;16.50;74.10;;;;;;2079678;28;20120;-57
2021/01/05 03:39:40;;;;;;;37.05;23.35;;;16.50;74.10;;;;;;2080142;28;20033;-55
2021/01/05 03:40:59;;;;;;;39.90;23.95;;;16.40;74.20;;;;;;2080350;28;20068;-58
2021/01/05 03:42:18;;;;;;;37.72;24.00;;;16.40;74.20;;;;;;2080322;28;20033;-57
2021/01/05 03:43:37;;;;;;;36.42;23.05;;;16.50;74.20;;;;;;2079681;28;20049;-55
2021/01/05 03:44:56;;;;;;;38.17;23.60;;;16.50;74.20;;;;;;2079793;28;20041;-57
2021/01/05 03:46:26;;;;;;;36.60;23.35;;;16.50;74.00;;;;;;2063939;28;20039;-54
2021/01/05 03:47:45;;;;;;;38.03;23.50;;;16.40;74.10;;;;;;2080247;28;20053;-57
2021/01/05 03:49:04;;;;;;;37.30;23.73;;;16.40;74.40;;;;;;2080147;28;20398;-55
2021/01/05 03:50:26;;;;;;;35.30;22.85;;;16.40;74.40;;;;;;2104784;28;20075;-55
2021/01/05 03:52:05;;;;;;;36.90;23.10;;;16.40;74.10;;;;;;2104974;28;20040;-57
2021/01/05 03:53:28;;;;;;;39.65;23.95;;;16.40;74.20;;;;;;2072124;28;20141;-56
2021/01/05 03:54:47;;;;;;;34.70;22.88;;;16.40;74.30;;;;;;2104821;28;20479;-55
2021/01/05 03:56:07;;;;;;;37.10;23.13;;;16.40;74.40;;;;;;2105293;28;20028;-56
2021/01/05 03:57:26;;;;;;;36.20;23.15;;;16.40;74.40;;;;;;2100648;28;20075;-56
2021/01/05 03:58:46;;;;;;;36.63;23.35;;;16.30;74.40;;;;;;2080173;28;20029;-57
2021/01/05 04:00:07;;;;;;;36.78;23.23;;;16.30;74.70;;;;;;2080145;28;20120;-57
2021/01/05 04:01:14;;;;;;;36.38;23.40;;;16.30;74.60;;;;;;2080151;28;20064;-58
2021/01/05 04:02:15;;;;;;;36.42;23.35;;;16.40;74.40;;;;;;2079753;28;20745;-56
2021/01/05 04:03:16;;;;;;;37.50;23.05;;;16.30;74.30;;;;;;2079991;28;20044;-58
2021/01/05 04:04:16;;;;;;;35.67;22.90;;;16.50;73.80;;;;;;2079893;28;20128;-57
2021/01/05 04:05:17;;;;;;;37.08;22.90;;;16.50;73.40;;;;;;2078916;28;20100;-57
2021/01/05 04:06:18;;;;;;;34.97;22.25;;;16.60;73.30;;;;;;2080072;28;20048;-58
2021/01/05 04:07:19;;;;;;;34.30;22.30;;;16.70;73.00;;;;;;2079838;28;20042;-58
2021/01/05 04:08:19;;;;;;;36.88;22.98;;;16.70;72.70;;;;;;2079870;28;20029;-58
2021/01/05 04:09:20;;;;;;;35.97;23.05;;;16.70;72.40;;;;;;2079144;28;20487;-56
2021/01/05 04:10:21;;;;;;;36.67;23.10;;;16.70;72.40;;;;;;2078798;28;20821;-58
2021/01/05 04:11:22;;;;;;;34.85;22.48;;;16.70;72.60;;;;;;2079839;28;20535;-60
2021/01/05 04:12:23;;;;;;;36.17;22.75;;;16.60;72.80;;;;;;2079879;28;20026;-58
2021/01/05 04:13:23;;;;;;;33.92;22.73;;;16.60;73.20;;;;;;2080066;28;20032;-58
2021/01/05 04:14:24;;;;;;;33.95;22.42;;;16.60;73.30;;;;;;2080029;28;20094;-57
2021/01/05 04:15:28;;;;;;;35.47;22.98;;;16.60;73.20;;;;;;2079092;28;20056;-59
2021/01/05 04:16:29;;;;;;;32.83;22.25;;;16.70;72.70;;;;;;2079934;28;20037;-56
2021/01/05 04:17:30;;;;;;;33.85;22.60;;;16.70;72.50;;;;;;2079812;28;20017;-58
2021/01/05 04:18:30;;;;;;;36.85;22.73;;;16.70;72.50;;;;;;2079208;28;20464;-57
2021/01/05 04:19:31;;;;;;;33.83;22.52;;;16.80;72.40;;;;;;2079818;28;20033;-57
2021/01/05 04:20:32;;;;;;;35.13;22.40;;;16.80;72.20;;;;;;2079860;28;20172;-57
2021/01/05 04:21:33;;;;;;;35.08;22.85;;;16.80;71.90;;;;;;2079704;28;20063;-57
2021/01/05 04:22:34;;;;;;;34.70;22.65;;;16.80;71.90;;;;;;2079754;28;20484;-56
2021/01/05 04:23:34;;;;;;;34.42;22.20;;;16.70;72.20;;;;;;2079955;28;20033;-61
2021/01/05 04:24:35;;;;;;;34.47;22.80;;;16.60;72.60;;;;;;2079343;28;20411;-58
2021/01/05 04:25:36;;;;;;;34.78;22.63;;;16.60;72.70;;;;;;2079206;28;20307;-57
2021/01/05 04:26:36;;;;;;;35.88;22.35;;;16.60;72.80;;;;;;2079792;28;20434;-61
2021/01/05 04:27:37;;;;;;;35.88;23.27;;;16.60;73.00;;;;;;2079900;28;20033;-58
2021/01/05 04:28:38;;;;;;;32.78;22.00;;;16.50;73.20;;;;;;2079713;28;20114;-57
2021/01/05 04:29:38;;;;;;;35.50;22.80;;;16.50;73.30;;;;;;2079846;28;20029;-58
2021/01/05 04:30:39;;;;;;;34.72;23.17;;;16.40;73.60;;;;;;2079492;28;20036;-56
2021/01/05 04:31:42;;;;;;;34.50;22.77;;;16.40;73.80;;;;;;2080122;28;20648;-58
2021/01/05 04:32:43;;;;;;;34.60;22.45;;;16.40;74.00;;;;;;2079090;28;20042;-58
2021/01/05 04:33:43;;;;;;;36.05;23.27;;;16.40;73.80;;;;;;2079200;28;20029;-57
2021/01/05 04:34:44;;;;;;;35.35;22.98;;;16.50;73.80;;;;;;2079511;28;20022;-58
2021/01/05 04:35:45;;;;;;;35.88;23.15;;;16.40;73.80;;;;;;2079217;28;20037;-57
2021/01/05 04:36:45;;;;;;;35.60;22.35;;;16.40;73.80;;;;;;2079571;28;20090;-58
2021/01/05 04:37:46;;;;;;;33.25;22.50;;;16.40;73.90;;;;;;2079665;28;20026;-59
2021/01/05 04:38:47;;;;;;;33.58;22.05;;;16.30;73.90;;;;;;2079361;28;20061;-57
2021/01/05 04:39:47;;;;;;;33.13;22.05;;;16.40;74.10;;;;;;2079644;28;20070;-57
2021/01/05 04:40:48;;;;;;;32.63;22.10;;;16.40;74.10;;;;;;2079749;28;20062;-56
2021/01/05 04:41:58;;;;;;;33.35;22.10;;;16.40;73.90;;;;;;2079856;28;20026;-58
2021/01/05 04:43:07;;;;;;;36.83;22.80;;;16.50;73.10;;;;;;2079326;28;20589;-57
2021/01/05 04:44:11;;;;;;;33.67;21.85;;;16.60;72.80;;;;;;2079718;28;20480;-58
2021/01/05 04:45:21;;;;;;;35.35;22.08;;;16.60;72.60;;;;;;2079022;28;20037;-56
2021/01/05 04:46:28;;;;;;;34.08;22.27;;;16.60;72.60;;;;;;2079291;28;20029;-58
2021/01/05 04:47:50;;;;;;;34.63;22.15;;;16.60;72.90;;;;;;2079744;28;20073;-59
2021/01/05 04:48:56;;;;;;;34.08;21.73;;;16.70;73.00;;;;;;2079836;28;20037;-59
2021/01/05 04:50:06;;;;;;;33.05;21.65;;;16.80;72.90;;;;;;2078910;28;20049;-58
2021/01/05 04:51:13;;;;;;;;;;;17.00;72.40;;;;;;2079786;28;20037;-58
2021/01/05 04:52:18;;;;;;;35.92;22.33;;;17.10;71.70;;;;;;2079905;28;20753;-57
2021/01/05 04:53:27;;;;;;;35.13;22.45;;;17.20;71.00;;;;;;2079664;28;20528;-58
2021/01/05 04:54:52;;;;;;;32.78;21.55;;;17.40;70.60;;;;;;2079659;28;20047;-56
2021/01/05 04:56:09;;;;;;;32.63;21.08;;;17.50;70.10;;;;;;2079234;28;20518;-54
2021/01/05 04:57:21;;;;;;;34.35;22.00;;;17.70;69.50;;;;;;2079762;28;20014;-57
2021/01/05 04:58:36;;;;;;;32.03;21.50;;;17.80;69.10;;;;;;2079597;28;20036;-58
2021/01/05 04:59:59;;;;;;;34.92;22.13;;;17.90;68.70;;;;;;2079824;28;20025;-55
2021/01/05 05:01:05;;;;;;;34.25;21.65;;;17.90;68.70;;;;;;2079460;28;20038;-54
2021/01/05 05:02:30;;;;;;;31.92;21.50;;;18.00;68.20;;;;;;2079766;28;20037;-58
2021/01/05 05:04:08;;;;;;;32.30;21.23;;;18.10;67.90;;;;;;2079437;28;20060;-58
2021/01/05 05:05:24;;;;;;;31.40;21.23;;;18.10;67.90;;;;;;2078922;28;20100;-58
2021/01/05 05:06:39;;;;;;;30.52;20.70;;;18.20;67.80;;;;;;2079808;28;20033;-57
2021/01/05 05:07:53;;;;;;;31.77;20.88;;;18.30;67.60;;;;;;2079678;28;20079;-58
2021/01/05 05:09:24;;;;;;;32.90;21.58;;;18.30;67.50;;;;;;2079661;28;20033;-58
2021/01/05 05:10:30;;;;;;;31.67;20.48;;;18.20;67.70;;;;;;2079711;28;20022;-58
2021/01/05 05:11:51;;;;;;;33.38;20.88;;;18.30;67.60;;;;;;2079760;28;20492;-58
2021/01/05 05:13:19;;;;;;;32.55;21.20;;;18.40;67.50;;;;;;2079820;28;20433;-59
2021/01/05 05:14:49;;;;;;;31.23;20.77;;;18.40;67.30;;;;;;2079454;28;20061;-58
2021/01/05 05:16:09;;;;;;;31.23;20.65;;;18.50;67.20;;;;;;2079318;28;20616;-58
2021/01/05 05:17:31;;;;;;;32.67;21.20;;;18.60;66.90;;;;;;2079011;28;20025;-57
2021/01/05 05:19:02;;;;;;;32.20;20.30;;;18.60;66.80;;;;;;2079117;28;20746;-55
2021/01/05 05:20:33;;;;;;;29.83;20.08;;;18.70;66.50;;;;;;2079235;28;20065;-54
2021/01/05 05:21:52;;;;;;;;;;;18.70;66.40;;;;;;2079973;28;20030;-58
2021/01/05 05:23:21;;;;;;;32.55;21.20;;;18.80;66.30;;;;;;2079027;28;19905;-57
2021/01/05 05:24:24;;;;;;;31.85;20.77;;;18.80;66.30;;;;;;2079484;28;20037;-55
2021/01/05 05:25:33;;;;;;;31.38;20.65;;;18.80;66.40;;;;;;2078685;28;20053;-56
2021/01/05 05:26:48;;;;;;;33.25;21.70;;;18.80;66.50;;;;;;2079514;28;20486;-56
2021/01/05 05:28:05;;;;;;;30.42;20.63;;;18.80;66.40;;;;;;2079450;28;20029;-56
2021/01/05 05:29:20;;;;;;;30.55;20.38;;;18.80;66.40;;;;;;2079386;28;20085;-54
2021/01/05 05:30:33;;;;;;;29.92;20.73;;;18.80;66.60;;;;;;2079387;28;20056;-58
2021/01/05 05:31:35;;;;;;;31.20;20.42;;;18.70;66.70;;;;;;2078600;28;20030;-57
2021/01/05 05:33:00;;;;;;;30.55;20.48;;;18.70;66.80;;;;;;2078848;28;20035;-55
2021/01/05 05:34:07;;;;;;;31.55;21.00;;;18.70;67.00;;;;;;2086747;28;20121;-57
2021/01/05 05:35:37;;;;;;;29.85;19.90;;;18.60;66.90;;;;;;2078664;28;20101;-57
2021/01/05 05:37:00;;;;;;;31.48;20.27;;;18.60;67.10;;;;;;2079249;28;20037;-57
2021/01/05 05:38:05;;;;;;;31.17;20.23;;;18.60;67.20;;;;;;2078977;28;20029;-58
2021/01/05 05:39:11;;;;;;;28.73;19.83;;;18.50;67.40;;;;;;2079213;28;20108;-58
2021/01/05 05:40:37;;;;;;;30.05;19.48;;;18.60;67.40;;;;;;2079256;28;20101;-54
2021/01/05 05:41:50;;;;;;;29.90;19.90;;;18.50;67.50;;;;;;2079547;28;20038;-55
2021/01/05 05:43:06;;;;;;;30.85;19.88;;;18.50;67.60;;;;;;2079097;28;20030;-58
2021/01/05 05:44:26;;;;;;;30.15;20.55;;;18.40;67.70;;;;;;2079247;28;20569;-55
2021/01/05 05:45:36;;;;;;;30.60;20.40;;;18.40;67.80;;;;;;2078353;28;20026;-57
2021/01/05 05:46:44;;;;;;;30.42;20.33;;;18.40;68.00;;;;;;2079467;28;20755;-57
2021/01/05 05:47:44;;;;;;;31.38;19.90;;;18.30;68.00;;;;;;2079449;28;20552;-59
2021/01/05 05:49:00;;;;;;;30.15;20.30;;;18.30;68.20;;;;;;2078811;28;20086;-57
2021/01/05 05:50:22;;;;;;;30.00;20.05;;;18.30;68.30;;;;;;2078866;28;20026;-57
2021/01/05 05:51:37;;;;;;;29.23;20.17;;;18.20;68.50;;;;;;2079064;28;20029;-57
2021/01/05 05:52:50;;;;;;;30.35;20.13;;;18.20;68.90;;;;;;2079421;28;20022;-55
2021/01/05 05:53:57;;;;;;;30.67;20.20;;;18.10;69.00;;;;;;2079369;28;20075;-58
2021/01/05 05:55:01;;;;;;;29.63;19.77;;;18.10;69.20;;;;;;2078891;28;20018;-58
2021/01/05 05:56:12;;;;;;;30.45;20.13;;;18.10;69.20;;;;;;2078891;28;20035;-58
2021/01/05 05:57:35;;;;;;;29.70;20.25;;;18.10;69.10;;;;;;2078992;28;20029;-55
2021/01/05 05:58:44;;;;;;;30.48;19.98;;;18.00;69.10;;;;;;2078606;28;20098;-58
2021/01/05 05:59:55;;;;;;;29.35;19.55;;;18.00;69.20;;;;;;2078811;28;20568;-57
2021/01/05 06:01:01;;;;;;;31.05;19.83;;;18.00;69.30;;;;;;2079164;28;20029;-58
2021/01/05 06:02:01;;;;;;;29.33;20.20;;;17.90;69.50;;;;;;2079468;28;20025;-56
2021/01/05 06:03:04;;;;;;;28.15;19.98;;;17.90;69.60;;;;;;2079359;28;20032;-56
2021/01/05 06:04:07;;;;;;;29.30;19.92;;;17.90;69.80;;;;;;2079159;28;20040;-57
2021/01/05 06:05:43;;;;;;;29.70;19.98;;;17.90;69.80;;;;;;2077944;28;20029;-58
2021/01/05 06:06:45;;;;;;;28.13;19.55;;;17.90;69.70;;;;;;2081941;28;20488;-56
2021/01/05 06:07:46;;;;;;;30.27;19.90;;;18.00;69.60;;;;;;2079154;28;20492;-55